Terminal Aerodrome Forecast
Issued by NWS Shreveport, LA

Home | Current Version | Previous Version | Text Only | Print | Product List | Glossary On
Versions: 1 2 3 4 5 6 7 8 9 10 11 12 13 14 15
000
FTUS44 KSHV 262300 RRA
TAFTYR
TAF
KTYR 262353Z 2700/2724 15010KT 5SM BR OVC007
     FM270400 16009KT 3SM -RA BR OVC004
     FM270900 VRB04KT 2SM BR VCSH OVC004
      TEMPO 2709/2711 1SM -TSRA BR OVC004CB
     FM271100 09004KT 3SM BR OVC004
     FM271500 33010KT 3SM BR OVC015
     FM271800 33012KT 4SM BR OVC007
     FM272200 35012G14KT P6SM OVC015=

USA.gov is the U.S. government's official web portal to all federal, state and local government web resources and services.